createdAt,value
2018-11-29T00:00:09.671Z,72.12
2018-11-29T00:02:37.903Z,71.64
2018-11-29T00:05:06.840Z,72.19
2018-11-29T00:07:35.704Z,71.64
2018-11-29T00:10:03.940Z,71.57
2018-11-29T00:12:32.225Z,71.84
2018-11-29T00:15:00.404Z,71.60
2018-11-29T00:17:29.676Z,72.20
2018-11-29T00:19:57.878Z,72.09
2018-11-29T00:22:26.027Z,72.40
2018-11-29T00:24:54.203Z,72.08
2018-11-29T00:27:22.583Z,72.20
2018-11-29T00:29:50.901Z,71.87
2018-11-29T00:32:19.327Z,73.14
2018-11-29T00:34:47.604Z,75.87
2018-11-29T00:37:15.906Z,78.19
2018-11-29T00:39:44.274Z,78.34
2018-11-29T00:42:12.507Z,78.62
2018-11-29T00:44:40.668Z,78.67
2018-11-29T00:47:08.900Z,78.53
2018-11-29T00:49:37.241Z,79.04
2018-11-29T00:52:05.437Z,80.26
2018-11-29T00:54:33.659Z,79.59
2018-11-29T00:57:01.832Z,79.20
2018-11-29T00:59:30.227Z,79.24
2018-11-29T01:02:00.272Z,78.91
2018-11-29T01:04:29.084Z,79.15
2018-11-29T01:06:57.381Z,78.65
2018-11-29T01:09:25.520Z,79.10
2018-11-29T01:11:53.698Z,78.62
2018-11-29T01:14:21.989Z,79.00
2018-11-29T01:16:50.145Z,78.57
2018-11-29T01:19:18.336Z,78.12
2018-11-29T01:21:46.517Z,79.04
2018-11-29T01:24:14.809Z,78.58
2018-11-29T01:26:49.697Z,78.82
2018-11-29T01:29:17.855Z,78.92
2018-11-29T01:31:46.172Z,79.20
2018-11-29T01:34:14.447Z,78.80
2018-11-29T01:36:42.625Z,78.59
2018-11-29T01:39:10.794Z,78.49
2018-11-29T01:41:39.004Z,79.06
2018-11-29T01:44:09.860Z,78.59
2018-11-29T01:46:38.017Z,78.64
2018-11-29T01:49:06.173Z,78.22
2018-11-29T01:51:34.381Z,77.96
2018-11-29T01:54:02.748Z,78.10
2018-11-29T01:56:30.915Z,78.85
2018-11-29T01:58:59.272Z,78.10
2018-11-29T02:01:27.434Z,77.73
2018-11-29T02:03:55.583Z,77.74
2018-11-29T02:06:24.102Z,78.33
2018-11-29T02:08:52.262Z,77.12
2018-11-29T02:11:20.552Z,77.71
2018-11-29T02:13:48.711Z,77.60
2018-11-29T02:16:17.039Z,78.33
2018-11-29T02:18:47.470Z,78.66
2018-11-29T02:21:15.743Z,78.65
2018-11-29T02:23:43.990Z,77.74
2018-11-29T02:26:12.165Z,77.47
2018-11-29T02:28:45.752Z,77.21
2018-11-29T02:31:14.342Z,77.60
2018-11-29T02:33:42.512Z,77.12
2018-11-29T02:36:10.808Z,77.66
2018-11-29T02:38:39.073Z,77.27
2018-11-29T02:41:07.291Z,76.44
2018-11-29T02:43:35.844Z,76.64
2018-11-29T02:46:04.083Z,76.53
2018-11-29T02:48:32.329Z,76.54
2018-11-29T02:51:00.481Z,75.78
2018-11-29T02:53:28.757Z,76.61
2018-11-29T02:56:03.152Z,76.15
2018-11-29T02:58:31.341Z,76.27
2018-11-29T03:00:59.717Z,75.69
2018-11-29T03:03:27.900Z,75.91
2018-11-29T03:05:56.077Z,75.94
2018-11-29T03:08:24.246Z,75.99
2018-11-29T03:10:52.399Z,75.96
2018-11-29T03:13:21.126Z,76.18
2018-11-29T03:15:49.326Z,76.33
2018-11-29T03:18:17.489Z,77.42
2018-11-29T03:20:45.926Z,79.11
2018-11-29T03:23:14.197Z,78.74
2018-11-29T03:25:42.541Z,80.69
2018-11-29T03:28:10.744Z,81.95
2018-11-29T03:30:38.993Z,81.72
2018-11-29T03:33:07.177Z,82.18
2018-11-29T03:35:35.556Z,82.36
2018-11-29T03:38:03.893Z,82.10
2018-11-29T03:40:32.063Z,82.98
2018-11-29T03:43:00.221Z,82.67
2018-11-29T03:45:28.402Z,82.17
2018-11-29T03:47:56.682Z,81.70
2018-11-29T03:50:24.845Z,82.22
2018-11-29T03:52:53.135Z,82.13
2018-11-29T03:55:21.479Z,82.94
2018-11-29T03:57:49.866Z,82.02
2018-11-29T04:00:18.448Z,81.09
2018-11-29T04:02:47.377Z,81.40
2018-11-29T04:05:15.543Z,81.37
2018-11-29T04:07:43.735Z,81.27
2018-11-29T04:10:12.884Z,79.96
2018-11-29T04:12:41.246Z,80.63
2018-11-29T04:15:10.598Z,80.48
2018-11-29T04:17:40.837Z,80.89
2018-11-29T04:20:08.846Z,80.97
2018-11-29T04:22:37.048Z,81.68
2018-11-29T04:25:05.971Z,82.43
2018-11-29T04:27:34.125Z,83.63
2018-11-29T04:30:02.296Z,85.04
2018-11-29T04:32:30.456Z,84.90
2018-11-29T04:34:58.617Z,86.08
2018-11-29T04:37:26.815Z,86.96
2018-11-29T04:39:54.953Z,88.38
2018-11-29T04:42:23.181Z,87.41
2018-11-29T04:44:51.598Z,88.63
2018-11-29T04:47:19.757Z,88.38
2018-11-29T04:49:48.001Z,88.29
2018-11-29T04:52:16.313Z,88.19
2018-11-29T04:54:44.494Z,88.62
2018-11-29T04:57:12.752Z,88.53
2018-11-29T04:59:40.917Z,88.08
2018-11-29T05:02:09.071Z,89.17
2018-11-29T05:04:37.292Z,89.05
2018-11-29T05:07:05.478Z,89.88
2018-11-29T05:09:33.662Z,90.46
2018-11-29T05:12:01.840Z,90.51
2018-11-29T05:14:30.147Z,90.92
2018-11-29T05:16:58.329Z,90.46
2018-11-29T05:19:26.633Z,91.02
2018-11-29T05:21:55.046Z,90.23
2018-11-29T05:24:23.246Z,90.81
2018-11-29T05:26:51.566Z,91.07
2018-11-29T05:29:19.713Z,91.27
2018-11-29T05:31:47.932Z,91.04
2018-11-29T05:34:16.058Z,91.13
2018-11-29T05:36:44.354Z,91.32
2018-11-29T05:39:12.553Z,91.29
2018-11-29T05:41:40.789Z,91.27
2018-11-29T05:44:08.968Z,91.29
2018-11-29T05:46:37.159Z,91.21
2018-11-29T05:49:05.310Z,91.60
2018-11-29T05:51:33.914Z,91.31
2018-11-29T05:54:02.065Z,91.62
2018-11-29T05:56:30.314Z,91.85
2018-11-29T05:58:58.480Z,92.49
2018-11-29T06:01:30.390Z,92.66
2018-11-29T06:03:58.539Z,92.72
2018-11-29T06:06:26.779Z,92.35
2018-11-29T06:08:55.036Z,92.72
2018-11-29T06:11:23.409Z,92.75
2018-11-29T06:13:51.614Z,92.81
2018-11-29T06:16:19.780Z,92.96
2018-11-29T06:18:48.272Z,92.51
2018-11-29T06:21:16.451Z,92.43
2018-11-29T06:23:44.645Z,92.69
2018-11-29T06:26:12.891Z,92.45
2018-11-29T06:28:41.244Z,92.19
2018-11-29T06:31:09.429Z,92.11
2018-11-29T06:33:37.573Z,92.53
2018-11-29T06:36:05.705Z,92.40
2018-11-29T06:38:34.043Z,92.42
2018-11-29T06:41:02.231Z,92.58
2018-11-29T06:43:38.093Z,92.89
2018-11-29T06:46:07.298Z,93.13
2018-11-29T06:48:35.487Z,93.60
2018-11-29T06:51:03.788Z,93.27
2018-11-29T06:53:37.323Z,93.60
2018-11-29T06:56:05.547Z,93.60
2018-11-29T06:58:33.971Z,93.87
2018-11-29T07:01:02.120Z,93.34
2018-11-29T07:03:30.347Z,93.20
2018-11-29T07:05:58.632Z,93.10
2018-11-29T07:08:26.992Z,92.81
2018-11-29T07:10:55.397Z,92.98
2018-11-29T07:13:23.576Z,93.87
2018-11-29T07:15:51.780Z,93.10
2018-11-29T07:18:20.093Z,93.30
2018-11-29T07:20:59.500Z,92.76
2018-11-29T07:23:28.131Z,92.72
2018-11-29T07:25:56.420Z,92.71
2018-11-29T07:28:24.589Z,93.06
2018-11-29T07:30:52.862Z,93.05
2018-11-29T07:33:21.094Z,93.03
2018-11-29T07:35:49.286Z,93.00
2018-11-29T07:38:17.459Z,92.51
2018-11-29T07:40:45.779Z,92.00
2018-11-29T07:43:13.987Z,92.30
2018-11-29T07:45:42.175Z,92.05
2018-11-29T07:48:10.391Z,92.44
2018-11-29T07:50:38.639Z,91.85
2018-11-29T07:53:06.838Z,91.66
2018-11-29T07:55:54.933Z,91.97
2018-11-29T07:58:23.205Z,92.43
2018-11-29T08:00:51.377Z,92.00
2018-11-29T08:03:20.293Z,92.19
2018-11-29T08:05:48.472Z,92.18
2018-11-29T08:08:16.668Z,92.32
2018-11-29T08:10:44.899Z,91.66
2018-11-29T08:13:13.203Z,92.66
2018-11-29T08:15:41.422Z,92.19
2018-11-29T08:18:09.683Z,92.38
2018-11-29T08:20:37.872Z,92.01
2018-11-29T08:23:06.241Z,91.87
2018-11-29T08:25:34.393Z,92.48
2018-11-29T08:28:02.570Z,92.63
2018-11-29T08:30:30.768Z,93.14
2018-11-29T08:32:58.959Z,92.49
2018-11-29T08:35:28.375Z,92.79
2018-11-29T08:37:56.681Z,92.32
2018-11-29T08:40:25.017Z,91.98
2018-11-29T08:42:53.303Z,92.58
2018-11-29T08:45:21.735Z,92.78
2018-11-29T08:47:49.948Z,92.66
2018-11-29T08:50:18.221Z,92.30
2018-11-29T08:52:46.790Z,92.00
2018-11-29T08:55:17.859Z,92.04
2018-11-29T08:57:46.614Z,92.42
2018-11-29T09:00:18.608Z,92.14
2018-11-29T09:02:47.988Z,92.19
2018-11-29T09:05:19.227Z,92.42
2018-11-29T09:07:48.242Z,92.15
2018-11-29T09:10:18.913Z,92.43
2018-11-29T09:12:47.147Z,91.84
2018-11-29T09:15:16.058Z,92.17
2018-11-29T09:17:46.298Z,91.61
2018-11-29T09:20:18.427Z,91.46
2018-11-29T09:22:47.708Z,91.96
2018-11-29T09:25:16.892Z,91.24
2018-11-29T09:27:45.102Z,91.57
2018-11-29T09:30:19.027Z,92.11
2018-11-29T09:32:48.322Z,91.37
2018-11-29T09:35:16.602Z,91.17
2018-11-29T09:37:44.775Z,91.26
2018-11-29T09:40:15.777Z,91.59
2018-11-29T09:42:44.387Z,91.28
2018-11-29T09:45:14.772Z,91.72
2018-11-29T09:47:43.658Z,91.58
2018-11-29T09:50:12.812Z,91.74
2018-11-29T09:52:41.267Z,90.91
2018-11-29T09:55:11.536Z,91.36
2018-11-29T09:57:39.712Z,91.59
2018-11-29T10:00:27.204Z,91.79
2018-11-29T10:02:54.949Z,91.09
2018-11-29T10:05:23.133Z,91.12
2018-11-29T10:07:51.511Z,90.45
2018-11-29T10:10:19.691Z,90.75
2018-11-29T10:12:47.914Z,91.53
2018-11-29T10:15:16.222Z,91.34
2018-11-29T10:17:44.415Z,91.17
2018-11-29T10:20:13.036Z,90.90
2018-11-29T10:22:41.933Z,90.30
2018-11-29T10:25:11.500Z,91.26
2018-11-29T10:27:39.872Z,91.29
2018-11-29T10:30:17.661Z,91.23
2018-11-29T10:32:45.939Z,91.66
2018-11-29T10:35:14.103Z,91.68
2018-11-29T10:37:42.764Z,91.70
2018-11-29T10:40:11.273Z,91.94
2018-11-29T10:42:39.660Z,92.16
2018-11-29T10:45:16.305Z,91.55
2018-11-29T10:47:51.975Z,91.27
2018-11-29T10:50:14.565Z,90.56
2018-11-29T10:52:42.794Z,91.37
2018-11-29T10:55:14.973Z,91.58
2018-11-29T10:57:43.409Z,91.89
2018-11-29T11:00:20.919Z,91.98
2018-11-29T11:02:54.370Z,91.85
2018-11-29T11:05:22.792Z,92.34
2018-11-29T11:07:51.086Z,92.19
2018-11-29T11:10:19.406Z,91.89
2018-11-29T11:12:48.172Z,91.81
2018-11-29T11:15:16.620Z,92.49
2018-11-29T11:17:44.817Z,91.92
2018-11-29T11:20:13.224Z,92.14
2018-11-29T11:22:41.466Z,92.30
2018-11-29T11:25:10.631Z,93.00
2018-11-29T11:27:38.838Z,92.74
2018-11-29T11:30:14.330Z,92.77
2018-11-29T11:32:48.324Z,92.44
2018-11-29T11:35:16.534Z,92.87
2018-11-29T11:37:44.865Z,92.21
2018-11-29T11:40:14.766Z,92.70
2018-11-29T11:42:43.254Z,92.94
2018-11-29T11:45:19.042Z,92.92
2018-11-29T11:47:47.374Z,93.31
2018-11-29T11:50:17.490Z,92.94
2018-11-29T11:52:45.761Z,92.93
2018-11-29T11:55:18.852Z,92.88
2018-11-29T11:57:45.994Z,93.14
2018-11-29T12:00:15.522Z,92.71
2018-11-29T12:02:44.236Z,93.11
2018-11-29T12:05:12.772Z,93.03
2018-11-29T12:07:41.001Z,93.54
2018-11-29T12:10:10.577Z,93.61
2018-11-29T12:12:38.753Z,93.76
2018-11-29T12:15:08.849Z,93.74
2018-11-29T12:17:37.369Z,93.80
2018-11-29T12:20:08.961Z,93.94
2018-11-29T12:22:37.353Z,93.84
2018-11-29T12:25:06.514Z,93.99
2018-11-29T12:27:34.690Z,94.17
2018-11-29T12:30:03.125Z,93.94
2018-11-29T12:32:31.349Z,94.09
2018-11-29T12:34:59.601Z,94.03
2018-11-29T12:37:27.795Z,93.76
2018-11-29T12:39:56.193Z,94.02
2018-11-29T12:42:25.256Z,93.74
2018-11-29T12:44:53.460Z,94.50
2018-11-29T12:47:21.723Z,94.14
2018-11-29T12:49:49.957Z,94.03
2018-11-29T12:52:18.131Z,94.65
2018-11-29T12:54:46.583Z,94.52
2018-11-29T12:57:14.907Z,94.41
2018-11-29T12:59:43.210Z,94.18
2018-11-29T13:02:13.366Z,94.19
2018-11-29T13:04:42.678Z,94.48
2018-11-29T13:07:11.956Z,94.21
2018-11-29T13:09:40.213Z,94.27
2018-11-29T13:12:08.552Z,94.64
2018-11-29T13:14:36.837Z,94.37
2018-11-29T13:17:05.163Z,93.96
2018-11-29T13:19:35.392Z,94.40
2018-11-29T13:22:03.603Z,93.99
2018-11-29T13:24:32.016Z,93.40
2018-11-29T13:27:00.237Z,93.38
2018-11-29T13:29:28.449Z,94.13
2018-11-29T13:31:56.656Z,93.75
2018-11-29T13:34:24.880Z,93.63
2018-11-29T13:36:53.088Z,93.39
2018-11-29T13:39:21.577Z,93.07
2018-11-29T13:41:49.739Z,93.29
2018-11-29T13:44:18.014Z,93.78
2018-11-29T13:46:46.278Z,93.53
2018-11-29T13:49:14.522Z,93.32
2018-11-29T13:51:42.704Z,92.92
2018-11-29T13:54:11.021Z,93.21
2018-11-29T13:56:44.695Z,93.11
2018-11-29T13:59:12.886Z,92.70
2018-11-29T14:01:41.230Z,92.79
2018-11-29T14:04:09.425Z,92.69
2018-11-29T14:06:37.607Z,92.25
2018-11-29T14:09:08.290Z,92.51
2018-11-29T14:11:36.507Z,92.06
2018-11-29T14:14:07.893Z,92.36
2018-11-29T14:16:32.997Z,92.37
2018-11-29T14:19:01.266Z,91.46
2018-11-29T14:21:36.172Z,91.94
2018-11-29T14:24:04.340Z,91.51
2018-11-29T14:26:32.545Z,91.94
2018-11-29T14:29:00.723Z,91.22
2018-11-29T14:31:28.895Z,91.47
2018-11-29T14:33:57.274Z,91.04
2018-11-29T14:36:25.452Z,90.86
2018-11-29T14:38:53.669Z,90.95
2018-11-29T14:41:21.895Z,90.17
2018-11-29T14:43:50.101Z,90.49
2018-11-29T14:46:18.601Z,90.70
2018-11-29T14:48:46.799Z,90.71
2018-11-29T14:51:14.997Z,89.82
2018-11-29T14:53:43.321Z,90.40
2018-11-29T14:56:11.508Z,89.66
2018-11-29T14:58:40.337Z,90.53
2018-11-29T15:01:08.631Z,89.97
2018-11-29T15:03:36.847Z,90.20
2018-11-29T15:06:05.131Z,89.72
2018-11-29T15:08:33.319Z,89.70
2018-11-29T15:11:01.694Z,90.05
2018-11-29T15:13:30.556Z,89.54
2018-11-29T15:15:58.840Z,89.56
2018-11-29T15:18:27.127Z,89.53
2018-11-29T15:20:55.302Z,89.53
2018-11-29T15:23:23.515Z,89.78
2018-11-29T15:25:52.566Z,89.61
2018-11-29T15:28:20.777Z,88.80
2018-11-29T15:30:49.004Z,88.45
2018-11-29T15:33:17.300Z,88.06
2018-11-29T15:35:45.508Z,87.68
2018-11-29T15:38:13.848Z,88.70
2018-11-29T15:40:42.998Z,88.43
2018-11-29T15:43:11.341Z,88.69
2018-11-29T15:45:39.502Z,87.70
2018-11-29T15:48:07.701Z,87.58
2018-11-29T15:50:35.888Z,88.07
2018-11-29T15:53:04.081Z,87.22
2018-11-29T15:55:32.210Z,87.68
2018-11-29T15:58:00.708Z,87.68
2018-11-29T16:00:29.603Z,87.05
2018-11-29T16:02:58.957Z,87.87
2018-11-29T16:05:27.217Z,86.94
2018-11-29T16:07:55.396Z,86.85
2018-11-29T16:10:24.521Z,87.05
2018-11-29T16:12:52.759Z,86.96
2018-11-29T16:15:21.442Z,86.94
2018-11-29T16:17:50.511Z,87.11
2018-11-29T16:20:23.671Z,86.41
2018-11-29T16:22:51.894Z,85.27
2018-11-29T16:25:20.303Z,85.69
2018-11-29T16:27:48.558Z,84.99
2018-11-29T16:30:26.072Z,84.89
2018-11-29T16:32:54.967Z,85.20
2018-11-29T16:35:23.321Z,84.83
2018-11-29T16:37:51.720Z,84.35
2018-11-29T16:40:19.925Z,85.25
2018-11-29T16:42:48.106Z,84.01
2018-11-29T16:45:16.288Z,84.20
2018-11-29T16:47:44.483Z,83.32
2018-11-29T16:50:15.672Z,83.70
2018-11-29T16:52:43.876Z,83.94
2018-11-29T16:55:12.515Z,84.06
2018-11-29T16:57:44.638Z,83.11
2018-11-29T17:00:17.761Z,83.10
2018-11-29T17:02:45.958Z,82.16
2018-11-29T17:05:14.592Z,82.89
2018-11-29T17:07:42.873Z,82.68
2018-11-29T17:10:12.258Z,82.99
2018-11-29T17:12:40.722Z,81.96
2018-11-29T17:15:10.717Z,83.13
2018-11-29T17:17:38.907Z,82.10
2018-11-29T17:20:11.762Z,83.02
2018-11-29T17:22:41.130Z,82.97
2018-11-29T17:25:11.126Z,83.28
2018-11-29T17:27:39.454Z,83.52
2018-11-29T17:30:17.458Z,83.59
2018-11-29T17:32:45.810Z,83.62
2018-11-29T17:35:13.983Z,83.34
2018-11-29T17:37:42.214Z,83.59
2018-11-29T17:40:13.544Z,83.50
2018-11-29T17:42:41.842Z,83.00
2018-11-29T17:45:11.262Z,82.27
2018-11-29T17:47:39.620Z,82.87
2018-11-29T17:50:11.382Z,84.38
2018-11-29T17:52:39.727Z,83.00
2018-11-29T17:55:07.950Z,81.81
2018-11-29T17:57:36.138Z,82.12
2018-11-29T18:00:07.200Z,81.73
2018-11-29T18:02:35.574Z,82.32
2018-11-29T18:05:03.838Z,82.24
2018-11-29T18:07:32.379Z,83.01
2018-11-29T18:10:00.802Z,83.81
2018-11-29T18:12:30.014Z,83.89
2018-11-29T18:14:59.191Z,84.28
2018-11-29T18:17:28.315Z,84.21
2018-11-29T18:20:04.861Z,84.50
2018-11-29T18:22:33.836Z,84.97
2018-11-29T18:25:02.853Z,84.84
2018-11-29T18:27:31.717Z,85.98
2018-11-29T18:29:59.904Z,86.78
2018-11-29T18:32:28.174Z,87.66
2018-11-29T18:34:56.487Z,86.77
2018-11-29T18:37:24.677Z,87.20
2018-11-29T18:39:52.875Z,85.96
2018-11-29T18:42:21.807Z,87.89
2018-11-29T18:44:50.090Z,87.36
2018-11-29T18:47:18.290Z,87.49
2018-11-29T18:49:47.275Z,87.39
2018-11-29T18:52:15.586Z,87.41
2018-11-29T18:54:43.856Z,86.74
2018-11-29T18:57:22.342Z,86.95
2018-11-29T18:59:50.599Z,87.16
2018-11-29T19:02:18.805Z,87.29
2018-11-29T19:04:47.064Z,85.91
2018-11-29T19:07:15.379Z,85.85
2018-11-29T19:09:43.830Z,86.54
2018-11-29T19:12:12.161Z,86.74
2018-11-29T19:14:42.859Z,86.19
2018-11-29T19:17:11.109Z,85.31
2018-11-29T19:19:39.495Z,84.61
2018-11-29T19:22:08.685Z,84.75
2018-11-29T19:24:36.985Z,83.83
2018-11-29T19:27:05.411Z,83.07
2018-11-29T19:29:39.504Z,82.43
2018-11-29T19:32:07.736Z,84.44
2018-11-29T19:34:36.197Z,81.69
2018-11-29T19:37:04.408Z,83.11
2018-11-29T19:39:32.683Z,83.25
2018-11-29T19:42:00.893Z,82.08
2018-11-29T19:44:29.047Z,81.93
2018-11-29T19:47:02.038Z,81.82
2018-11-29T19:49:30.612Z,81.66
2018-11-29T19:51:58.989Z,82.20
2018-11-29T19:54:27.218Z,82.54
2018-11-29T19:56:55.497Z,81.98
2018-11-29T19:59:24.180Z,81.26
2018-11-29T20:01:52.443Z,80.98
2018-11-29T20:04:20.646Z,81.92
2018-11-29T20:06:48.980Z,81.80
2018-11-29T20:09:17.189Z,82.55
2018-11-29T20:11:45.607Z,81.83
2018-11-29T20:14:13.850Z,81.45
2018-11-29T20:16:42.373Z,81.42
2018-11-29T20:19:10.581Z,81.18
2018-11-29T20:21:38.766Z,81.35
2018-11-29T20:24:06.974Z,80.99
2018-11-29T20:26:35.224Z,81.67
2018-11-29T20:29:03.781Z,80.18
2018-11-29T20:31:32.158Z,79.52
2018-11-29T20:34:00.385Z,80.51
2018-11-29T20:36:28.601Z,80.57
2018-11-29T20:38:57.149Z,80.88
2018-11-29T20:41:25.946Z,80.47
2018-11-29T20:43:54.198Z,80.43
2018-11-29T20:46:22.426Z,79.64
2018-11-29T20:48:50.684Z,79.15
2018-11-29T20:51:18.827Z,79.91
2018-11-29T20:53:47.122Z,80.57
2018-11-29T20:56:15.690Z,79.72
2018-11-29T20:58:43.991Z,79.56
2018-11-29T21:01:12.383Z,80.76
2018-11-29T21:03:40.636Z,80.21
2018-11-29T21:06:10.861Z,79.39
2018-11-29T21:08:39.126Z,79.26
2018-11-29T21:11:07.870Z,79.28
2018-11-29T21:13:36.208Z,79.38
2018-11-29T21:16:04.467Z,79.06
2018-11-29T21:18:32.738Z,79.56
2018-11-29T21:21:00.917Z,79.17
2018-11-29T21:23:29.251Z,79.27
2018-11-29T21:25:57.532Z,79.07
2018-11-29T21:28:25.681Z,79.37
2018-11-29T21:30:53.857Z,80.03
2018-11-29T21:33:22.138Z,79.58
2018-11-29T21:35:50.350Z,80.17
2018-11-29T21:38:19.674Z,79.74
2018-11-29T21:40:56.723Z,79.07
2018-11-29T21:43:24.914Z,79.26
2018-11-29T21:45:53.111Z,79.67
2018-11-29T21:48:21.373Z,79.15
2018-11-29T21:50:49.584Z,79.00
2018-11-29T21:53:17.790Z,79.59
2018-11-29T21:55:46.049Z,78.94
2018-11-29T21:58:14.234Z,79.70
2018-11-29T22:00:44.060Z,79.46
2018-11-29T22:04:24.315Z,79.43
2018-11-29T22:06:52.689Z,79.16
2018-11-29T22:09:21.125Z,78.98
2018-11-29T22:11:49.439Z,79.25
2018-11-29T22:14:20.349Z,79.48
2018-11-29T22:16:48.710Z,79.55
2018-11-29T22:19:16.945Z,78.92
2018-11-29T22:21:45.175Z,78.79
2018-11-29T22:24:15.443Z,79.11
2018-11-29T22:27:11.133Z,78.73
2018-11-29T22:29:41.280Z,78.73
2018-11-29T22:32:09.550Z,79.14
2018-11-29T22:34:46.150Z,78.23
2018-11-29T22:37:15.181Z,78.70
2018-11-29T22:39:43.503Z,79.15
2018-11-29T22:42:19.934Z,78.67
2018-11-29T22:44:50.214Z,79.08
2018-11-29T23:03:36.123Z,78.13
2018-11-29T23:06:07.072Z,77.90
2018-11-29T23:08:35.669Z,78.32
2018-11-29T23:11:03.958Z,77.86
2018-11-29T23:13:32.111Z,77.61
2018-11-29T23:16:00.325Z,77.42
2018-11-29T23:18:28.765Z,76.50
2018-11-29T23:20:56.993Z,77.21
2018-11-29T23:23:25.191Z,77.12
2018-11-29T23:25:53.393Z,76.21
2018-11-29T23:28:23.105Z,76.73
2018-11-29T23:30:51.322Z,76.58
2018-11-29T23:33:20.030Z,75.84
2018-11-29T23:35:48.245Z,75.91
2018-11-29T23:38:16.782Z,75.47
2018-11-29T23:40:45.644Z,75.14
2018-11-29T23:43:16.067Z,75.36
2018-11-29T23:45:44.327Z,75.00
2018-11-29T23:48:12.543Z,75.24
2018-11-29T23:50:40.873Z,74.77
2018-11-29T23:53:09.275Z,74.01
2018-11-29T23:58:11.826Z,74.35
